sensor_id;sensor_type;location;lat;lon;timestamp;temperature;humidity
17918;DHT22;9084;50.956;3.106;2023-07-13T00:01:06;16.50;99.90
17918;DHT22;9084;50.956;3.106;2023-07-13T00:03:34;16.50;99.90
17918;DHT22;9084;50.956;3.106;2023-07-13T00:06:02;16.50;99.90
17918;DHT22;9084;50.956;3.106;2023-07-13T00:08:31;16.40;99.90
17918;DHT22;9084;50.956;3.106;2023-07-13T00:11:00;16.50;99.90
17918;DHT22;9084;50.956;3.106;2023-07-13T00:13:31;16.40;99.90
17918;DHT22;9084;50.956;3.106;2023-07-13T00:15:58;16.40;99.90
17918;DHT22;9084;50.956;3.106;2023-07-13T00:18:24;16.40;99.90
17918;DHT22;9084;50.956;3.106;2023-07-13T00:20:54;16.40;99.90
17918;DHT22;9084;50.956;3.106;2023-07-13T00:23:22;16.40;99.90
17918;DHT22;9084;50.956;3.106;2023-07-13T00:25:48;16.40;99.90
17918;DHT22;9084;50.956;3.106;2023-07-13T00:28:16;16.40;99.90
17918;DHT22;9084;50.956;3.106;2023-07-13T00:30:41;16.30;99.90
17918;DHT22;9084;50.956;3.106;2023-07-13T00:33:07;16.30;99.90
17918;DHT22;9084;50.956;3.106;2023-07-13T00:35:35;16.30;99.90
17918;DHT22;9084;50.956;3.106;2023-07-13T00:38:03;16.30;99.90
17918;DHT22;9084;50.956;3.106;2023-07-13T00:40:28;16.20;99.90
17918;DHT22;9084;50.956;3.106;2023-07-13T00:42:58;16.20;99.90
17918;DHT22;9084;50.956;3.106;2023-07-13T00:47:55;16.20;99.90
17918;DHT22;9084;50.956;3.106;2023-07-13T00:50:28;16.10;99.90
17918;DHT22;9084;50.956;3.106;2023-07-13T00:52:59;16.10;99.90
17918;DHT22;9084;50.956;3.106;2023-07-13T00:55:25;16.10;99.90
17918;DHT22;9084;50.956;3.106;2023-07-13T00:57:52;16.10;99.90
17918;DHT22;9084;50.956;3.106;2023-07-13T01:00:21;16.10;99.90
17918;DHT22;9084;50.956;3.106;2023-07-13T01:02:48;16.00;99.90
17918;DHT22;9084;50.956;3.106;2023-07-13T01:05:23;16.00;99.90
17918;DHT22;9084;50.956;3.106;2023-07-13T01:07:50;16.00;99.90
17918;DHT22;9084;50.956;3.106;2023-07-13T01:10:21;16.00;99.90
17918;DHT22;9084;50.956;3.106;2023-07-13T01:12:47;16.00;99.90
17918;DHT22;9084;50.956;3.106;2023-07-13T01:15:43;16.00;99.90
17918;DHT22;9084;50.956;3.106;2023-07-13T01:18:12;16.00;99.90
17918;DHT22;9084;50.956;3.106;2023-07-13T01:20:40;16.00;99.90
17918;DHT22;9084;50.956;3.106;2023-07-13T01:23:09;16.00;99.90
17918;DHT22;9084;50.956;3.106;2023-07-13T01:25:38;16.00;99.90
17918;DHT22;9084;50.956;3.106;2023-07-13T01:28:10;16.00;99.90
17918;DHT22;9084;50.956;3.106;2023-07-13T01:30:36;16.00;99.90
17918;DHT22;9084;50.956;3.106;2023-07-13T01:33:06;15.90;99.90
17918;DHT22;9084;50.956;3.106;2023-07-13T01:35:35;15.90;99.90
17918;DHT22;9084;50.956;3.106;2023-07-13T01:38:01;15.90;99.90
17918;DHT22;9084;50.956;3.106;2023-07-13T01:40:30;15.90;99.90
17918;DHT22;9084;50.956;3.106;2023-07-13T01:42:57;15.80;99.90
17918;DHT22;9084;50.956;3.106;2023-07-13T01:45:23;15.90;99.90
17918;DHT22;9084;50.956;3.106;2023-07-13T01:47:49;15.90;99.90
17918;DHT22;9084;50.956;3.106;2023-07-13T01:50:17;15.90;99.90
17918;DHT22;9084;50.956;3.106;2023-07-13T01:52:44;15.80;99.90
17918;DHT22;9084;50.956;3.106;2023-07-13T01:55:10;15.80;99.90
17918;DHT22;9084;50.956;3.106;2023-07-13T01:57:36;15.90;99.90
17918;DHT22;9084;50.956;3.106;2023-07-13T02:00:06;15.80;99.90
17918;DHT22;9084;50.956;3.106;2023-07-13T02:02:32;15.80;99.90
17918;DHT22;9084;50.956;3.106;2023-07-13T02:05:00;15.80;99.90
17918;DHT22;9084;50.956;3.106;2023-07-13T02:07:26;15.80;99.90
17918;DHT22;9084;50.956;3.106;2023-07-13T02:09:54;15.80;99.90
17918;DHT22;9084;50.956;3.106;2023-07-13T02:12:22;15.80;99.90
17918;DHT22;9084;50.956;3.106;2023-07-13T02:14:50;15.70;99.90
17918;DHT22;9084;50.956;3.106;2023-07-13T02:17:16;14.80;99.90
17918;DHT22;9084;50.956;3.106;2023-07-13T02:19:44;15.70;99.90
17918;DHT22;9084;50.956;3.106;2023-07-13T02:22:10;15.70;99.90
17918;DHT22;9084;50.956;3.106;2023-07-13T02:24:36;15.70;99.90
17918;DHT22;9084;50.956;3.106;2023-07-13T02:27:04;15.60;99.90
17918;DHT22;9084;50.956;3.106;2023-07-13T02:29:32;15.60;99.90
17918;DHT22;9084;50.956;3.106;2023-07-13T02:31:58;15.60;99.90
17918;DHT22;9084;50.956;3.106;2023-07-13T02:34:23;15.60;99.90
17918;DHT22;9084;50.956;3.106;2023-07-13T02:36:51;15.60;99.90
17918;DHT22;9084;50.956;3.106;2023-07-13T02:39:17;15.60;99.90
17918;DHT22;9084;50.956;3.106;2023-07-13T02:41:42;15.60;99.90
17918;DHT22;9084;50.956;3.106;2023-07-13T02:44:10;15.60;99.90
17918;DHT22;9084;50.956;3.106;2023-07-13T02:46:37;15.60;99.90
17918;DHT22;9084;50.956;3.106;2023-07-13T02:49:04;15.60;99.90
17918;DHT22;9084;50.956;3.106;2023-07-13T02:51:30;15.60;99.90
17918;DHT22;9084;50.956;3.106;2023-07-13T02:53:57;15.60;99.90
17918;DHT22;9084;50.956;3.106;2023-07-13T02:56:29;15.60;99.90
17918;DHT22;9084;50.956;3.106;2023-07-13T02:58:56;15.60;99.90
17918;DHT22;9084;50.956;3.106;2023-07-13T03:01:22;15.70;99.90
17918;DHT22;9084;50.956;3.106;2023-07-13T03:03:49;15.70;99.90
17918;DHT22;9084;50.956;3.106;2023-07-13T03:06:15;15.70;99.90
17918;DHT22;9084;50.956;3.106;2023-07-13T03:08:47;15.70;99.90
17918;DHT22;9084;50.956;3.106;2023-07-13T03:11:16;15.70;99.90
17918;DHT22;9084;50.956;3.106;2023-07-13T03:13:43;15.70;99.90
17918;DHT22;9084;50.956;3.106;2023-07-13T03:16:10;15.80;99.90
17918;DHT22;9084;50.956;3.106;2023-07-13T03:18:36;15.80;99.90
17918;DHT22;9084;50.956;3.106;2023-07-13T03:21:05;15.80;99.90
17918;DHT22;9084;50.956;3.106;2023-07-13T03:23:31;15.70;99.90
17918;DHT22;9084;50.956;3.106;2023-07-13T03:28:35;15.80;99.90
17918;DHT22;9084;50.956;3.106;2023-07-13T03:31:10;15.80;99.90
17918;DHT22;9084;50.956;3.106;2023-07-13T03:33:37;15.80;99.90
17918;DHT22;9084;50.956;3.106;2023-07-13T03:36:06;15.80;99.90
17918;DHT22;9084;50.956;3.106;2023-07-13T03:38:34;15.80;99.90
17918;DHT22;9084;50.956;3.106;2023-07-13T03:41:02;15.80;99.90
17918;DHT22;9084;50.956;3.106;2023-07-13T03:43:28;15.70;99.90
17918;DHT22;9084;50.956;3.106;2023-07-13T03:45:56;15.70;99.90
17918;DHT22;9084;50.956;3.106;2023-07-13T03:48:21;15.70;99.90
17918;DHT22;9084;50.956;3.106;2023-07-13T03:50:47;15.70;99.90
17918;DHT22;9084;50.956;3.106;2023-07-13T03:53:15;15.70;99.90
17918;DHT22;9084;50.956;3.106;2023-07-13T03:55:41;15.70;99.90
17918;DHT22;9084;50.956;3.106;2023-07-13T03:58:32;15.80;99.90
17918;DHT22;9084;50.956;3.106;2023-07-13T04:00:59;15.80;99.90
17918;DHT22;9084;50.956;3.106;2023-07-13T04:03:25;15.90;99.90
17918;DHT22;9084;50.956;3.106;2023-07-13T04:05:55;15.90;99.90
17918;DHT22;9084;50.956;3.106;2023-07-13T04:08:30;16.00;99.90
17918;DHT22;9084;50.956;3.106;2023-07-13T04:10:56;16.00;99.90
17918;DHT22;9084;50.956;3.106;2023-07-13T04:13:25;16.10;99.90
17918;DHT22;9084;50.956;3.106;2023-07-13T04:15:51;16.10;99.90
17918;DHT22;9084;50.956;3.106;2023-07-13T04:18:20;16.20;99.90
17918;DHT22;9084;50.956;3.106;2023-07-13T04:20:47;16.20;99.90
17918;DHT22;9084;50.956;3.106;2023-07-13T04:23:18;16.20;99.90
17918;DHT22;9084;50.956;3.106;2023-07-13T04:25:45;16.20;99.90
17918;DHT22;9084;50.956;3.106;2023-07-13T04:28:19;16.30;99.90
17918;DHT22;9084;50.956;3.106;2023-07-13T04:30:45;16.30;99.90
17918;DHT22;9084;50.956;3.106;2023-07-13T04:33:13;16.40;99.90
17918;DHT22;9084;50.956;3.106;2023-07-13T04:35:38;16.40;99.90
17918;DHT22;9084;50.956;3.106;2023-07-13T04:38:07;16.50;99.90
17918;DHT22;9084;50.956;3.106;2023-07-13T04:40:32;16.50;99.90
17918;DHT22;9084;50.956;3.106;2023-07-13T04:43:03;16.60;99.90
17918;DHT22;9084;50.956;3.106;2023-07-13T04:45:30;16.60;99.90
17918;DHT22;9084;50.956;3.106;2023-07-13T04:47:56;16.60;99.90
17918;DHT22;9084;50.956;3.106;2023-07-13T04:50:22;16.70;99.90
17918;DHT22;9084;50.956;3.106;2023-07-13T04:52:51;16.80;99.90
17918;DHT22;9084;50.956;3.106;2023-07-13T04:55:20;16.80;99.90
17918;DHT22;9084;50.956;3.106;2023-07-13T04:57:48;16.90;99.90
17918;DHT22;9084;50.956;3.106;2023-07-13T05:00:14;16.90;99.90
17918;DHT22;9084;50.956;3.106;2023-07-13T05:02:45;16.90;99.90
17918;DHT22;9084;50.956;3.106;2023-07-13T05:05:13;16.90;99.90
17918;DHT22;9084;50.956;3.106;2023-07-13T05:07:41;17.00;99.90
17918;DHT22;9084;50.956;3.106;2023-07-13T05:10:09;17.00;99.90
17918;DHT22;9084;50.956;3.106;2023-07-13T05:12:37;17.10;99.90
17918;DHT22;9084;50.956;3.106;2023-07-13T05:15:09;17.10;99.90
17918;DHT22;9084;50.956;3.106;2023-07-13T05:17:34;17.10;99.90
17918;DHT22;9084;50.956;3.106;2023-07-13T05:20:00;17.20;99.90
17918;DHT22;9084;50.956;3.106;2023-07-13T05:22:28;17.20;99.90
17918;DHT22;9084;50.956;3.106;2023-07-13T05:24:53;17.30;99.90
17918;DHT22;9084;50.956;3.106;2023-07-13T05:27:21;17.30;99.90
17918;DHT22;9084;50.956;3.106;2023-07-13T05:29:47;17.40;99.90
17918;DHT22;9084;50.956;3.106;2023-07-13T05:32:13;17.40;99.90
17918;DHT22;9084;50.956;3.106;2023-07-13T05:34:41;17.50;99.80
17918;DHT22;9084;50.956;3.106;2023-07-13T05:37:09;17.60;97.40
17918;DHT22;9084;50.956;3.106;2023-07-13T05:39:35;17.60;94.00
17918;DHT22;9084;50.956;3.106;2023-07-13T05:42:02;17.60;91.50
17918;DHT22;9084;50.956;3.106;2023-07-13T05:44:30;17.70;86.60
17918;DHT22;9084;50.956;3.106;2023-07-13T05:46:58;17.70;83.70
17918;DHT22;9084;50.956;3.106;2023-07-13T05:49:24;17.80;75.50
17918;DHT22;9084;50.956;3.106;2023-07-13T05:51:52;17.80;73.90
17918;DHT22;9084;50.956;3.106;2023-07-13T05:54:20;17.90;69.60
17918;DHT22;9084;50.956;3.106;2023-07-13T05:56:50;18.00;64.60
17918;DHT22;9084;50.956;3.106;2023-07-13T05:59:17;18.00;59.60
17918;DHT22;9084;50.956;3.106;2023-07-13T06:01:43;18.10;53.90
17918;DHT22;9084;50.956;3.106;2023-07-13T06:04:11;18.20;40.20
17918;DHT22;9084;50.956;3.106;2023-07-13T06:06:37;18.30;39.60
17918;DHT22;9084;50.956;3.106;2023-07-13T06:09:05;18.30;37.00
17918;DHT22;9084;50.956;3.106;2023-07-13T06:11:31;18.40;35.00
17918;DHT22;9084;50.956;3.106;2023-07-13T06:13:59;18.50;31.70
17918;DHT22;9084;50.956;3.106;2023-07-13T06:16:27;18.50;16.50
17918;DHT22;9084;50.956;3.106;2023-07-13T06:18:52;18.50;10.70
17918;DHT22;9084;50.956;3.106;2023-07-13T06:21:20;18.60;14.10
17918;DHT22;9084;50.956;3.106;2023-07-13T06:23:47;18.60;14.10
17918;DHT22;9084;50.956;3.106;2023-07-13T06:26:14;18.70;8.60
17918;DHT22;9084;50.956;3.106;2023-07-13T06:28:43;18.70;1.00
17918;DHT22;9084;50.956;3.106;2023-07-13T06:31:12;18.80;1.00
17918;DHT22;9084;50.956;3.106;2023-07-13T06:33:38;18.90;1.00
17918;DHT22;9084;50.956;3.106;2023-07-13T06:36:05;18.90;1.00
17918;DHT22;9084;50.956;3.106;2023-07-13T06:38:32;19.00;1.00
17918;DHT22;9084;50.956;3.106;2023-07-13T06:41:00;19.00;1.00
17918;DHT22;9084;50.956;3.106;2023-07-13T06:43:30;19.10;1.00
17918;DHT22;9084;50.956;3.106;2023-07-13T06:45:59;19.10;1.00
17918;DHT22;9084;50.956;3.106;2023-07-13T06:48:25;19.10;1.00
17918;DHT22;9084;50.956;3.106;2023-07-13T06:50:51;19.20;1.00
17918;DHT22;9084;50.956;3.106;2023-07-13T06:53:18;19.30;1.00
17918;DHT22;9084;50.956;3.106;2023-07-13T06:55:47;19.40;1.00
17918;DHT22;9084;50.956;3.106;2023-07-13T06:58:14;19.40;1.00
17918;DHT22;9084;50.956;3.106;2023-07-13T07:00:40;19.50;1.00
17918;DHT22;9084;50.956;3.106;2023-07-13T07:03:08;19.50;1.00
17918;DHT22;9084;50.956;3.106;2023-07-13T07:05:33;19.50;1.00
17918;DHT22;9084;50.956;3.106;2023-07-13T07:07:59;19.60;1.00
17918;DHT22;9084;50.956;3.106;2023-07-13T07:10:30;19.70;1.00
17918;DHT22;9084;50.956;3.106;2023-07-13T07:12:58;19.90;1.00
17918;DHT22;9084;50.956;3.106;2023-07-13T07:15:25;20.00;1.00
17918;DHT22;9084;50.956;3.106;2023-07-13T07:17:58;20.00;1.00
17918;DHT22;9084;50.956;3.106;2023-07-13T07:20:26;20.00;1.00
17918;DHT22;9084;50.956;3.106;2023-07-13T07:22:52;20.20;1.00
17918;DHT22;9084;50.956;3.106;2023-07-13T07:25:20;20.20;1.00
17918;DHT22;9084;50.956;3.106;2023-07-13T07:27:48;20.30;1.00
17918;DHT22;9084;50.956;3.106;2023-07-13T07:30:14;20.40;1.00
17918;DHT22;9084;50.956;3.106;2023-07-13T07:32:42;20.30;1.00
17918;DHT22;9084;50.956;3.106;2023-07-13T07:35:08;20.40;1.00
17918;DHT22;9084;50.956;3.106;2023-07-13T07:37:34;20.40;1.00
17918;DHT22;9084;50.956;3.106;2023-07-13T07:40:02;20.50;1.00
17918;DHT22;9084;50.956;3.106;2023-07-13T07:42:30;20.60;1.00
17918;DHT22;9084;50.956;3.106;2023-07-13T07:44:58;20.70;1.00
17918;DHT22;9084;50.956;3.106;2023-07-13T07:47:28;20.70;1.00
17918;DHT22;9084;50.956;3.106;2023-07-13T07:49:54;20.80;1.00
17918;DHT22;9084;50.956;3.106;2023-07-13T07:52:24;20.80;1.00
17918;DHT22;9084;50.956;3.106;2023-07-13T07:54:54;20.80;1.00
17918;DHT22;9084;50.956;3.106;2023-07-13T07:57:20;20.80;1.00
17918;DHT22;9084;50.956;3.106;2023-07-13T07:59:46;20.70;1.00
17918;DHT22;9084;50.956;3.106;2023-07-13T08:02:12;20.70;1.00
17918;DHT22;9084;50.956;3.106;2023-07-13T08:04:42;20.60;1.00
17918;DHT22;9084;50.956;3.106;2023-07-13T08:07:10;20.40;1.00
17918;DHT22;9084;50.956;3.106;2023-07-13T08:09:35;20.40;1.00
17918;DHT22;9084;50.956;3.106;2023-07-13T08:12:03;20.40;1.00
17918;DHT22;9084;50.956;3.106;2023-07-13T08:14:32;20.30;1.00
17918;DHT22;9084;50.956;3.106;2023-07-13T08:17:00;20.20;1.00
17918;DHT22;9084;50.956;3.106;2023-07-13T08:19:26;20.20;1.00
17918;DHT22;9084;50.956;3.106;2023-07-13T08:22:00;20.30;1.00
17918;DHT22;9084;50.956;3.106;2023-07-13T08:24:25;20.50;1.00
17918;DHT22;9084;50.956;3.106;2023-07-13T08:26:53;20.60;1.00
17918;DHT22;9084;50.956;3.106;2023-07-13T08:29:20;20.70;1.00
17918;DHT22;9084;50.956;3.106;2023-07-13T08:31:46;20.70;1.00
17918;DHT22;9084;50.956;3.106;2023-07-13T08:34:11;20.90;1.00
17918;DHT22;9084;50.956;3.106;2023-07-13T08:36:37;21.20;1.00
17918;DHT22;9084;50.956;3.106;2023-07-13T08:39:05;21.40;1.00
17918;DHT22;9084;50.956;3.106;2023-07-13T08:41:32;21.60;1.00
17918;DHT22;9084;50.956;3.106;2023-07-13T08:43:59;21.70;1.00
17918;DHT22;9084;50.956;3.106;2023-07-13T08:46:46;21.70;1.00
17918;DHT22;9084;50.956;3.106;2023-07-13T08:49:16;21.80;1.00
17918;DHT22;9084;50.956;3.106;2023-07-13T08:51:45;21.70;1.00
17918;DHT22;9084;50.956;3.106;2023-07-13T08:54:35;21.60;1.00
17918;DHT22;9084;50.956;3.106;2023-07-13T08:57:09;21.50;1.00
17918;DHT22;9084;50.956;3.106;2023-07-13T08:59:36;21.30;1.00
17918;DHT22;9084;50.956;3.106;2023-07-13T09:05:25;21.00;1.00
17918;DHT22;9084;50.956;3.106;2023-07-13T09:10:41;21.40;1.00
17918;DHT22;9084;50.956;3.106;2023-07-13T09:13:21;21.70;1.00
17918;DHT22;9084;50.956;3.106;2023-07-13T09:15:49;22.00;99.90
17918;DHT22;9084;50.956;3.106;2023-07-13T09:18:27;22.20;99.90
17918;DHT22;9084;50.956;3.106;2023-07-13T09:23:31;22.60;1.00
17918;DHT22;9084;50.956;3.106;2023-07-13T09:26:21;22.70;1.00
17918;DHT22;9084;50.956;3.106;2023-07-13T09:28:56;23.00;1.00
17918;DHT22;9084;50.956;3.106;2023-07-13T09:31:33;23.30;1.00
17918;DHT22;9084;50.956;3.106;2023-07-13T09:34:00;23.50;1.00
17918;DHT22;9084;50.956;3.106;2023-07-13T09:36:32;23.50;99.90
17918;DHT22;9084;50.956;3.106;2023-07-13T09:46:38;22.70;99.90
17918;DHT22;9084;50.956;3.106;2023-07-13T09:49:03;22.40;99.90
17918;DHT22;9084;50.956;3.106;2023-07-13T09:51:29;22.20;1.00
17918;DHT22;9084;50.956;3.106;2023-07-13T09:53:55;22.00;1.00
17918;DHT22;9084;50.956;3.106;2023-07-13T09:56:24;21.70;1.00
17918;DHT22;9084;50.956;3.106;2023-07-13T09:58:55;20.80;1.00
17918;DHT22;9084;50.956;3.106;2023-07-13T10:01:36;19.60;1.00
17918;DHT22;9084;50.956;3.106;2023-07-13T10:04:02;18.60;84.30
17918;DHT22;9084;50.956;3.106;2023-07-13T10:06:41;18.10;99.90
17918;DHT22;9084;50.956;3.106;2023-07-13T10:09:08;17.90;99.90
17918;DHT22;9084;50.956;3.106;2023-07-13T10:11:36;17.90;99.90
17918;DHT22;9084;50.956;3.106;2023-07-13T10:14:15;18.10;99.90
17918;DHT22;9084;50.956;3.106;2023-07-13T10:16:43;18.30;99.90
17918;DHT22;9084;50.956;3.106;2023-07-13T10:21:54;18.60;99.90
17918;DHT22;9084;50.956;3.106;2023-07-13T10:24:27;18.60;99.90
17918;DHT22;9084;50.956;3.106;2023-07-13T10:29:44;19.00;99.90
17918;DHT22;9084;50.956;3.106;2023-07-13T10:32:12;19.10;99.90
17918;DHT22;9084;50.956;3.106;2023-07-13T10:34:39;19.10;99.90
17918;DHT22;9084;50.956;3.106;2023-07-13T10:37:17;19.30;99.90
17918;DHT22;9084;50.956;3.106;2023-07-13T10:39:47;19.60;99.90
17918;DHT22;9084;50.956;3.106;2023-07-13T10:42:25;19.90;99.90
17918;DHT22;9084;50.956;3.106;2023-07-13T10:44:52;20.00;99.90
17918;DHT22;9084;50.956;3.106;2023-07-13T10:47:18;20.30;99.90
17918;DHT22;9084;50.956;3.106;2023-07-13T10:49:53;20.50;28.50
17918;DHT22;9084;50.956;3.106;2023-07-13T10:52:43;20.70;43.10
17918;DHT22;9084;50.956;3.106;2023-07-13T10:58:00;20.80;1.00
17918;DHT22;9084;50.956;3.106;2023-07-13T11:00:26;20.90;1.00
17918;DHT22;9084;50.956;3.106;2023-07-13T11:02:58;21.00;1.00
17918;DHT22;9084;50.956;3.106;2023-07-13T11:05:32;21.00;1.00
17918;DHT22;9084;50.956;3.106;2023-07-13T11:08:24;21.00;1.00
17918;DHT22;9084;50.956;3.106;2023-07-13T11:10:57;21.00;1.00
17918;DHT22;9084;50.956;3.106;2023-07-13T11:13:36;20.90;1.00
17918;DHT22;9084;50.956;3.106;2023-07-13T11:18:48;21.20;1.00
17918;DHT22;9084;50.956;3.106;2023-07-13T11:21:19;21.30;1.00
17918;DHT22;9084;50.956;3.106;2023-07-13T11:23:52;21.20;1.00
17918;DHT22;9084;50.956;3.106;2023-07-13T11:32:10;21.30;1.00
17918;DHT22;9084;50.956;3.106;2023-07-13T11:34:46;21.40;1.00
17918;DHT22;9084;50.956;3.106;2023-07-13T11:37:15;21.40;1.00
17918;DHT22;9084;50.956;3.106;2023-07-13T11:39:47;21.50;1.00
17918;DHT22;9084;50.956;3.106;2023-07-13T11:42:16;21.70;1.00
17918;DHT22;9084;50.956;3.106;2023-07-13T11:44:48;21.80;1.00
17918;DHT22;9084;50.956;3.106;2023-07-13T11:47:19;21.90;1.00
17918;DHT22;9084;50.956;3.106;2023-07-13T11:49:57;22.00;99.90
17918;DHT22;9084;50.956;3.106;2023-07-13T11:52:33;22.00;99.90
17918;DHT22;9084;50.956;3.106;2023-07-13T11:55:01;22.10;99.90
17918;DHT22;9084;50.956;3.106;2023-07-13T11:58:00;22.20;99.90
17918;DHT22;9084;50.956;3.106;2023-07-13T12:00:29;22.20;99.90
17918;DHT22;9084;50.956;3.106;2023-07-13T12:03:02;22.30;1.00
17918;DHT22;9084;50.956;3.106;2023-07-13T12:05:30;22.20;1.00
17918;DHT22;9084;50.956;3.106;2023-07-13T12:07:56;22.10;1.00
17918;DHT22;9084;50.956;3.106;2023-07-13T12:10:26;22.10;1.00
17918;DHT22;9084;50.956;3.106;2023-07-13T12:12:57;22.20;1.00
17918;DHT22;9084;50.956;3.106;2023-07-13T12:15:36;22.30;99.90
17918;DHT22;9084;50.956;3.106;2023-07-13T12:18:03;22.50;1.00
17918;DHT22;9084;50.956;3.106;2023-07-13T12:20:38;22.80;99.90
17918;DHT22;9084;50.956;3.106;2023-07-13T12:23:28;23.20;1.00
17918;DHT22;9084;50.956;3.106;2023-07-13T12:26:01;23.50;75.40
17918;DHT22;9084;50.956;3.106;2023-07-13T12:28:34;23.60;99.90
17918;DHT22;9084;50.956;3.106;2023-07-13T12:31:03;23.60;1.00
17918;DHT22;9084;50.956;3.106;2023-07-13T12:33:32;23.60;1.00
17918;DHT22;9084;50.956;3.106;2023-07-13T12:36:05;23.80;99.90
17918;DHT22;9084;50.956;3.106;2023-07-13T12:38:34;23.80;1.00
17918;DHT22;9084;50.956;3.106;2023-07-13T12:41:04;24.00;99.90
17918;DHT22;9084;50.956;3.106;2023-07-13T12:43:39;24.10;78.90
17918;DHT22;9084;50.956;3.106;2023-07-13T12:46:17;24.30;1.00
17918;DHT22;9084;50.956;3.106;2023-07-13T12:48:43;24.40;1.00
17918;DHT22;9084;50.956;3.106;2023-07-13T12:51:14;24.50;99.90
17918;DHT22;9084;50.956;3.106;2023-07-13T12:53:42;24.50;1.00
17918;DHT22;9084;50.956;3.106;2023-07-13T12:56:18;24.60;1.00
17918;DHT22;9084;50.956;3.106;2023-07-13T12:58:48;24.50;99.90
17918;DHT22;9084;50.956;3.106;2023-07-13T13:01:25;24.30;99.90
17918;DHT22;9084;50.956;3.106;2023-07-13T13:03:53;24.20;99.90
17918;DHT22;9084;50.956;3.106;2023-07-13T13:08:57;24.10;1.00
17918;DHT22;9084;50.956;3.106;2023-07-13T13:11:32;24.10;1.00
17918;DHT22;9084;50.956;3.106;2023-07-13T13:13:57;24.20;1.00
17918;DHT22;9084;50.956;3.106;2023-07-13T13:18:54;24.90;99.90
17918;DHT22;9084;50.956;3.106;2023-07-13T13:21:25;25.30;99.90
17918;DHT22;9084;50.956;3.106;2023-07-13T13:23:54;25.50;1.00
17918;DHT22;9084;50.956;3.106;2023-07-13T13:26:22;25.60;1.00
17918;DHT22;9084;50.956;3.106;2023-07-13T13:28:48;25.80;1.00
17918;DHT22;9084;50.956;3.106;2023-07-13T13:31:14;25.80;1.00
17918;DHT22;9084;50.956;3.106;2023-07-13T13:33:45;25.90;99.90
17918;DHT22;9084;50.956;3.106;2023-07-13T13:36:22;25.80;64.00
17918;DHT22;9084;50.956;3.106;2023-07-13T13:38:50;25.70;65.80
17918;DHT22;9084;50.956;3.106;2023-07-13T13:41:16;25.60;66.70
17918;DHT22;9084;50.956;3.106;2023-07-13T13:43:45;25.50;66.40
17918;DHT22;9084;50.956;3.106;2023-07-13T13:46:20;25.40;66.60
17918;DHT22;9084;50.956;3.106;2023-07-13T13:48:47;25.40;66.20
17918;DHT22;9084;50.956;3.106;2023-07-13T13:51:22;25.40;66.50
17918;DHT22;9084;50.956;3.106;2023-07-13T13:53:49;25.50;65.90
17918;DHT22;9084;50.956;3.106;2023-07-13T13:56:17;25.60;67.10
17918;DHT22;9084;50.956;3.106;2023-07-13T13:58:43;25.40;65.90
17918;DHT22;9084;50.956;3.106;2023-07-13T14:01:21;25.10;66.60
17918;DHT22;9084;50.956;3.106;2023-07-13T14:03:48;25.00;67.20
17918;DHT22;9084;50.956;3.106;2023-07-13T14:06:19;24.80;67.90
17918;DHT22;9084;50.956;3.106;2023-07-13T14:08:44;24.90;68.20
17918;DHT22;9084;50.956;3.106;2023-07-13T14:11:15;25.20;67.90
17918;DHT22;9084;50.956;3.106;2023-07-13T14:13:44;25.50;67.60
17918;DHT22;9084;50.956;3.106;2023-07-13T14:16:16;25.60;61.70
17918;DHT22;9084;50.956;3.106;2023-07-13T14:18:46;25.70;62.90
17918;DHT22;9084;50.956;3.106;2023-07-13T14:21:17;25.90;61.80
17918;DHT22;9084;50.956;3.106;2023-07-13T14:23:47;26.00;57.80
17918;DHT22;9084;50.956;3.106;2023-07-13T14:26:19;26.10;57.10
17918;DHT22;9084;50.956;3.106;2023-07-13T14:28:48;25.90;57.80
17918;DHT22;9084;50.956;3.106;2023-07-13T14:31:16;25.60;58.70
17918;DHT22;9084;50.956;3.106;2023-07-13T14:33:45;25.80;60.90
17918;DHT22;9084;50.956;3.106;2023-07-13T14:36:41;26.00;63.30
17918;DHT22;9084;50.956;3.106;2023-07-13T14:39:24;26.10;60.90
17918;DHT22;9084;50.956;3.106;2023-07-13T14:41:55;25.80;60.80
17918;DHT22;9084;50.956;3.106;2023-07-13T14:44:25;25.60;61.30
17918;DHT22;9084;50.956;3.106;2023-07-13T14:46:54;25.60;62.10
17918;DHT22;9084;50.956;3.106;2023-07-13T14:49:43;25.70;62.50
17918;DHT22;9084;50.956;3.106;2023-07-13T14:52:18;25.80;60.00
17918;DHT22;9084;50.956;3.106;2023-07-13T14:54:44;25.60;61.50
17918;DHT22;9084;50.956;3.106;2023-07-13T14:57:14;25.80;61.80
17918;DHT22;9084;50.956;3.106;2023-07-13T14:59:40;25.90;61.80
17918;DHT22;9084;50.956;3.106;2023-07-13T15:02:29;26.00;61.10
17918;DHT22;9084;50.956;3.106;2023-07-13T15:04:57;25.80;60.80
17918;DHT22;9084;50.956;3.106;2023-07-13T15:07:23;25.60;62.60
17918;DHT22;9084;50.956;3.106;2023-07-13T15:09:51;25.30;62.20
17918;DHT22;9084;50.956;3.106;2023-07-13T15:12:20;25.40;62.60
17918;DHT22;9084;50.956;3.106;2023-07-13T15:14:47;25.50;61.60
17918;DHT22;9084;50.956;3.106;2023-07-13T15:17:28;25.60;60.20
17918;DHT22;9084;50.956;3.106;2023-07-13T15:19:56;25.60;58.90
17918;DHT22;9084;50.956;3.106;2023-07-13T15:22:24;25.70;58.80
17918;DHT22;9084;50.956;3.106;2023-07-13T15:24:50;25.60;58.80
17918;DHT22;9084;50.956;3.106;2023-07-13T15:27:18;25.60;60.00
17918;DHT22;9084;50.956;3.106;2023-07-13T15:29:44;25.60;59.70
17918;DHT22;9084;50.956;3.106;2023-07-13T15:32:13;25.60;59.60
17918;DHT22;9084;50.956;3.106;2023-07-13T15:34:42;25.70;59.90
17918;DHT22;9084;50.956;3.106;2023-07-13T15:37:14;25.90;61.00
17918;DHT22;9084;50.956;3.106;2023-07-13T15:39:47;25.80;59.40
17918;DHT22;9084;50.956;3.106;2023-07-13T15:42:16;25.70;59.60
17918;DHT22;9084;50.956;3.106;2023-07-13T15:44:44;25.60;58.80
17918;DHT22;9084;50.956;3.106;2023-07-13T15:47:14;25.60;58.90
17918;DHT22;9084;50.956;3.106;2023-07-13T15:49:41;25.80;58.90
17918;DHT22;9084;50.956;3.106;2023-07-13T15:52:25;25.90;58.80
17918;DHT22;9084;50.956;3.106;2023-07-13T15:54:50;26.00;58.40
17918;DHT22;9084;50.956;3.106;2023-07-13T15:57:17;25.90;59.00
17918;DHT22;9084;50.956;3.106;2023-07-13T15:59:43;25.80;59.30
17918;DHT22;9084;50.956;3.106;2023-07-13T16:02:16;25.70;61.00
17918;DHT22;9084;50.956;3.106;2023-07-13T16:04:47;25.60;61.50
17918;DHT22;9084;50.956;3.106;2023-07-13T16:07:15;25.70;59.70
17918;DHT22;9084;50.956;3.106;2023-07-13T16:09:45;25.70;59.50
17918;DHT22;9084;50.956;3.106;2023-07-13T16:12:13;25.80;60.50
17918;DHT22;9084;50.956;3.106;2023-07-13T16:14:42;25.80;59.50
17918;DHT22;9084;50.956;3.106;2023-07-13T16:17:12;25.70;59.30
17918;DHT22;9084;50.956;3.106;2023-07-13T16:19:39;25.70;59.70
17918;DHT22;9084;50.956;3.106;2023-07-13T16:22:08;25.70;58.80
17918;DHT22;9084;50.956;3.106;2023-07-13T16:24:41;25.70;59.40
17918;DHT22;9084;50.956;3.106;2023-07-13T16:27:09;25.60;60.10
17918;DHT22;9084;50.956;3.106;2023-07-13T16:29:34;25.70;58.90
17918;DHT22;9084;50.956;3.106;2023-07-13T16:32:01;25.70;59.50
17918;DHT22;9084;50.956;3.106;2023-07-13T16:34:34;25.60;61.00
17918;DHT22;9084;50.956;3.106;2023-07-13T16:37:14;25.70;61.30
17918;DHT22;9084;50.956;3.106;2023-07-13T16:39:49;25.70;60.80
17918;DHT22;9084;50.956;3.106;2023-07-13T16:42:20;25.70;61.30
17918;DHT22;9084;50.956;3.106;2023-07-13T16:44:48;26.10;62.30
17918;DHT22;9084;50.956;3.106;2023-07-13T16:47:17;26.20;60.40